Luck, North Carolina
Current Conditions -  °F | °C
As of 7:54 AM on Friday 28 Nov 2014 (Local Time) from KAVL Reporting Station
Clear Clear  
Wind Chill: 18°   Ceiling: Unl
Heat Index: 25°   Visibility: 10mi
Dew Point: 15°   Wind: 6mph
Humidity: 66%   Direction: 340°NNW
Pressure: 30.33"   Gusts: NA
Location:  35.8037°N, 82.868°W
Report Text: KAVL 281254Z 34005KT 10SM CLR M04/M09 A3033 RMK AO2 SLP287 T10391094
Loading
Personal Weather Stations






























Interactive Weather Map New forecast layout! Learn more

10-Day Weather Forecast

Advertisements
Track Severe Weather on mobile